Main page
METAR-TAF:

METAR-TAF

Airports :

Tiree Airport

Tiree, Scotland

latitude: 56-30N, longitude: 006-53W, elevation: 12 m

Current weather observation

The report was made 47 minutes ago, at 18:20 UTC
Wind 23 kt from the East/Southeast
Temperature 4°C
Humidity 87%
Pressure 1004 hPa
Visibility 10 km or more

METAR: EGPU 181820Z AUTO 12023KT 9999 OVC013/// 04/02 Q1004

Time: 19:07 (19:07 UTC)

Forecast

The report was made 5 hours and 6 minutes ago, at 14:01 UTC
Forecast valid from 18 at 15 UTC to 18 at 19 UTC
Wind 27 kt from the Southeast
Visibility 10 km or more
Scattered clouds at a height of 1000 ft
Broken clouds at a height of 2000 ft
Temporary
from 18 at 15 UTC to 18 at 19 UTC
Visibility: 8000 m
Broken clouds at a height of 900 ft
light rain
Probability 40% :
Temporary
from 18 at 15 UTC to 18 at 16 UTC
Visibility: 3000 m
rain, drizzle

TAF: EGPU 181401Z 1815/1819 13027KT 9999 SCT010 BKN020 TEMPO 1815/1819 8000 -RA BKN009 PROB40 TEMPO 1815/1816 3000 RADZ

Weather observations and forecasts of more than 4000 airports (METAR and TAF reports).

The available stations are represented by yellow and red dots on the map.

Hover mouse over dot to see the name of the station.

Then click to see weather observations and forecasts.

To change the map : click on the green buttons with a black cross to zoom in, on the green button with a dash to zoom out, or on the green arrows for adjacent maps.


METAR-TAF: